createdAt,value
2018-02-18T00:00:15.093Z,101999.41
2018-02-18T00:02:42.494Z,102002.95
2018-02-18T00:05:09.890Z,102008.77
2018-02-18T00:07:37.336Z,102001.17
2018-02-18T00:10:04.739Z,102004.20
2018-02-18T00:12:32.127Z,102010.75
2018-02-18T00:15:11.290Z,102010.45
2018-02-18T00:17:38.684Z,102009.08
2018-02-18T00:20:06.135Z,102009.98
2018-02-18T00:22:33.543Z,102010.06
2018-02-18T00:25:00.935Z,102012.05
2018-02-18T00:27:28.315Z,102010.23
2018-02-18T00:29:55.723Z,102008.95
2018-02-18T00:32:23.112Z,102017.37
2018-02-18T00:34:50.514Z,102018.45
2018-02-18T00:37:17.907Z,102016.23
2018-02-18T00:39:45.314Z,102012.77
2018-02-18T00:42:12.710Z,102012.35
2018-02-18T00:44:40.555Z,102018.50
2018-02-18T00:47:07.947Z,102013.41
2018-02-18T00:49:35.345Z,102013.84
2018-02-18T00:52:02.736Z,102015.22
2018-02-18T00:54:30.130Z,102014.37
2018-02-18T00:56:57.524Z,102013.14
2018-02-18T00:59:24.905Z,102016.69
2018-02-18T01:01:52.299Z,102014.98
2018-02-18T01:04:19.698Z,102018.45
2018-02-18T01:06:47.087Z,102013.28
2018-02-18T01:09:14.511Z,102016.30
2018-02-18T01:11:41.925Z,102013.77
2018-02-18T01:14:09.422Z,102010.75
2018-02-18T01:16:36.831Z,102010.41
2018-02-18T01:19:04.233Z,102013.03
2018-02-18T01:21:31.618Z,102010.88
2018-02-18T01:23:59.016Z,102014.34
2018-02-18T01:26:26.421Z,102019.13
2018-02-18T01:28:53.815Z,102018.30
2018-02-18T01:31:21.215Z,102018.33
2018-02-18T01:33:48.658Z,102023.13
2018-02-18T01:36:16.046Z,102023.13
2018-02-18T01:38:43.430Z,102020.13
2018-02-18T01:41:10.832Z,102028.00
2018-02-18T01:43:38.275Z,102027.14
2018-02-18T01:46:05.700Z,102031.48
2018-02-18T01:48:33.153Z,102029.86
2018-02-18T01:51:00.498Z,102025.52
2018-02-18T01:53:27.892Z,102028.55
2018-02-18T01:55:55.298Z,102028.98
2018-02-18T01:58:22.691Z,102021.58
2018-02-18T02:00:50.167Z,102024.62
2018-02-18T02:03:17.622Z,102022.45
2018-02-18T02:05:45.027Z,102018.97
2018-02-18T02:08:12.406Z,102032.02
2018-02-18T02:10:39.802Z,102022.91
2018-02-18T02:13:07.191Z,102021.59
2018-02-18T02:15:34.586Z,102024.63
2018-02-18T02:18:01.980Z,102025.50
2018-02-18T02:20:29.379Z,102019.86
2018-02-18T02:22:56.771Z,102017.72
2018-02-18T02:25:24.233Z,102014.66
2018-02-18T02:27:51.608Z,102021.60
2018-02-18T02:30:18.999Z,102019.43
2018-02-18T02:32:46.390Z,102021.61
2018-02-18T02:35:13.786Z,102018.58
2018-02-18T02:37:41.197Z,102017.71
2018-02-18T02:40:08.659Z,102012.52
2018-02-18T02:42:36.045Z,102010.80
2018-02-18T02:45:03.443Z,102011.67
2018-02-18T02:47:30.837Z,102008.61
2018-02-18T02:49:58.231Z,102011.64
2018-02-18T02:52:25.622Z,102010.34
2018-02-18T02:54:53.048Z,102008.19
2018-02-18T02:57:20.543Z,102012.09
2018-02-18T02:59:47.998Z,102016.00
2018-02-18T03:02:15.447Z,102016.00
2018-02-18T03:04:42.913Z,102018.15
2018-02-18T03:07:10.304Z,102012.08
2018-02-18T03:09:37.690Z,102011.20
2018-02-18T03:12:05.088Z,102011.22
2018-02-18T03:14:32.474Z,102007.31
2018-02-18T03:16:59.875Z,102014.69
2018-02-18T03:19:27.366Z,102007.73
2018-02-18T03:21:54.759Z,102012.07
2018-02-18T03:24:22.161Z,102013.78
2018-02-18T03:26:49.565Z,102005.56
2018-02-18T03:29:16.951Z,102008.16
2018-02-18T03:31:44.344Z,102005.11
2018-02-18T03:34:11.726Z,101997.33
2018-02-18T03:36:39.144Z,101999.91
2018-02-18T03:39:06.534Z,102006.85
2018-02-18T03:41:33.962Z,102002.52
2018-02-18T03:44:01.352Z,102011.17
2018-02-18T03:46:28.738Z,102011.59
2018-02-18T03:48:56.226Z,102012.02
2018-02-18T03:51:23.990Z,102005.53
2018-02-18T03:53:51.431Z,102007.67
2018-02-18T03:56:18.827Z,102008.53
2018-02-18T03:58:46.263Z,102013.73
2018-02-18T04:01:13.719Z,102017.63
2018-02-18T04:03:41.115Z,102011.53
2018-02-18T04:06:08.503Z,102018.88
2018-02-18T04:08:35.987Z,102017.58
2018-02-18T04:11:03.382Z,102016.30
2018-02-18T04:13:30.771Z,102017.98
2018-02-18T04:15:58.252Z,102018.41
2018-02-18T04:18:25.701Z,102021.86
2018-02-18T04:20:53.086Z,102029.23
2018-02-18T04:23:20.511Z,102028.80
2018-02-18T04:25:47.966Z,102032.19
2018-02-18T04:28:15.422Z,102030.47
2018-02-18T04:30:42.831Z,102030.89
2018-02-18T04:33:10.218Z,102033.50
2018-02-18T04:35:37.686Z,102031.77
2018-02-18T04:38:05.076Z,102033.51
2018-02-18T04:40:32.516Z,102027.91
2018-02-18T04:42:59.988Z,102030.47
2018-02-18T04:45:27.439Z,102028.30
2018-02-18T04:47:54.834Z,102030.48
2018-02-18T04:50:22.227Z,102027.41
2018-02-18T04:52:49.705Z,102026.55
2018-02-18T04:55:17.102Z,102032.59
2018-02-18T04:57:44.519Z,102023.95
2018-02-18T05:00:11.974Z,102028.67
2018-02-18T05:02:39.439Z,102029.11
2018-02-18T05:05:06.829Z,102027.37
2018-02-18T05:07:34.221Z,102031.27
2018-02-18T05:10:01.617Z,102024.34
2018-02-18T05:12:29.019Z,102026.91
2018-02-18T05:14:56.462Z,102025.61
2018-02-18T05:17:23.914Z,102031.19
2018-02-18T05:19:51.372Z,102033.41
2018-02-18T05:22:18.774Z,102038.61
2018-02-18T05:24:46.166Z,102039.06
2018-02-18T05:27:14.461Z,102036.87
2018-02-18T05:29:42.739Z,102042.50
2018-02-18T05:32:10.196Z,102040.75
2018-02-18T05:34:37.586Z,102043.32
2018-02-18T05:37:04.996Z,102055.41
2018-02-18T05:39:32.378Z,102044.15
2018-02-18T05:42:00.214Z,102046.27
2018-02-18T05:44:27.604Z,102040.59
2018-02-18T05:46:55.025Z,102040.99
2018-02-18T05:49:22.478Z,102046.63
2018-02-18T05:51:49.872Z,102044.91
2018-02-18T05:54:17.277Z,102046.18
2018-02-18T05:56:44.679Z,102044.88
2018-02-18T05:59:12.075Z,102042.28
2018-02-18T06:01:39.555Z,102047.92
2018-02-18T06:04:06.951Z,102039.27
2018-02-18T06:06:34.386Z,102048.36
2018-02-18T06:09:01.762Z,102050.53
2018-02-18T06:11:29.179Z,102041.45
2018-02-18T06:13:56.655Z,102047.94
2018-02-18T06:16:24.054Z,102050.53
2018-02-18T06:18:51.439Z,102055.70
2018-02-18T06:21:18.838Z,102050.43
2018-02-18T06:23:47.227Z,102050.87
2018-02-18T06:26:14.631Z,102054.79
2018-02-18T06:28:42.021Z,102059.08
2018-02-18T06:31:09.452Z,102062.98
2018-02-18T06:33:36.902Z,102057.36
2018-02-18T06:36:04.350Z,102049.14
2018-02-18T06:38:31.747Z,102053.03
2018-02-18T06:40:59.264Z,102054.34
2018-02-18T06:43:26.658Z,102055.56
2018-02-18T06:45:54.047Z,102040.50
2018-02-18T06:48:21.453Z,102041.81
2018-02-18T06:50:48.861Z,102047.94
2018-02-18T06:53:16.320Z,102052.75
2018-02-18T06:55:43.718Z,102048.02
2018-02-18T06:58:11.111Z,102051.11
2018-02-18T07:00:38.512Z,102049.40
2018-02-18T07:03:05.902Z,102051.61
2018-02-18T07:05:33.306Z,102056.44
2018-02-18T07:08:00.710Z,102061.23
2018-02-18T07:10:28.110Z,102056.91
2018-02-18T07:12:55.507Z,102056.11
2018-02-18T07:15:23.107Z,102057.11
2018-02-18T07:17:50.502Z,102047.20
2018-02-18T07:20:17.947Z,102059.60
2018-02-18T07:22:46.215Z,102053.83
2018-02-18T07:25:13.623Z,102060.27
2018-02-18T07:27:40.991Z,102053.61
2018-02-18T07:30:08.486Z,102052.11
2018-02-18T07:32:35.874Z,102045.18
2018-02-18T07:35:03.273Z,102051.41
2018-02-18T07:37:30.662Z,102042.75
2018-02-18T07:39:58.159Z,102045.52
2018-02-18T07:42:25.607Z,102036.16
2018-02-18T07:44:53.067Z,102042.45
2018-02-18T07:47:20.470Z,102037.64
2018-02-18T07:49:47.891Z,102029.22
2018-02-18T07:52:15.275Z,102036.55
2018-02-18T07:54:42.668Z,102036.49
2018-02-18T07:57:10.062Z,102040.46
2018-02-18T07:59:37.509Z,102041.45
2018-02-18T08:02:04.954Z,102034.93
2018-02-18T08:04:32.424Z,102037.95
2018-02-18T08:06:59.806Z,102045.31
2018-02-18T08:09:27.220Z,102045.67
2018-02-18T08:11:54.628Z,102051.17
2018-02-18T08:14:22.019Z,102042.36
2018-02-18T08:16:49.416Z,102044.63
2018-02-18T08:19:16.814Z,102043.73
2018-02-18T08:21:44.308Z,102042.53
2018-02-18T08:24:11.750Z,102048.69
2018-02-18T08:26:39.208Z,102048.98
2018-02-18T08:29:06.602Z,102052.02
2018-02-18T08:31:34.022Z,102050.81
2018-02-18T08:34:01.419Z,102051.22
2018-02-18T08:36:28.815Z,102057.09
2018-02-18T08:38:56.207Z,102057.72
2018-02-18T08:41:23.643Z,102051.45
2018-02-18T08:43:51.035Z,102056.05
2018-02-18T08:46:18.455Z,102060.00
2018-02-18T08:48:45.843Z,102068.19
2018-02-18T08:51:13.262Z,102065.52
2018-02-18T08:53:40.718Z,102066.48
2018-02-18T08:56:08.158Z,102057.87
2018-02-18T08:58:35.511Z,102074.40
2018-02-18T09:01:02.917Z,102076.68
2018-02-18T09:03:30.344Z,102069.75
2018-02-18T09:05:57.725Z,102064.58
2018-02-18T09:08:25.118Z,102068.88
2018-02-18T09:10:52.503Z,102059.66
2018-02-18T09:13:19.894Z,102061.30
2018-02-18T09:15:47.315Z,102061.45
2018-02-18T09:18:14.775Z,102058.89
2018-02-18T09:20:42.227Z,102057.96
2018-02-18T09:23:09.623Z,102061.45
2018-02-18T09:25:37.018Z,102053.16
2018-02-18T09:28:04.419Z,102051.66
2018-02-18T09:30:31.799Z,102054.34
2018-02-18T09:32:59.306Z,102053.35
2018-02-18T09:35:26.715Z,102045.44
2018-02-18T09:37:54.106Z,102046.44
2018-02-18T09:40:21.492Z,102050.14
2018-02-18T09:42:48.903Z,102052.23
2018-02-18T09:45:16.294Z,102053.95
2018-02-18T09:47:43.678Z,102060.89
2018-02-18T09:50:11.100Z,102066.86
2018-02-18T09:52:38.474Z,102068.38
2018-02-18T09:55:05.907Z,102069.75
2018-02-18T09:57:33.368Z,102075.15
2018-02-18T10:00:00.760Z,102079.73
2018-02-18T10:02:28.146Z,102070.00
2018-02-18T10:04:55.546Z,102070.17
2018-02-18T10:07:22.934Z,102058.33
2018-02-18T10:09:50.333Z,102063.50
2018-02-18T10:12:17.723Z,102069.41
2018-02-18T10:14:45.428Z,102064.95
2018-02-18T10:17:12.936Z,102062.44
2018-02-18T10:19:40.319Z,102066.63
2018-02-18T10:22:07.755Z,102074.98
2018-02-18T10:24:35.142Z,102068.48
2018-02-18T10:27:02.535Z,102064.34
2018-02-18T10:29:29.931Z,102057.30
2018-02-18T10:31:57.339Z,102051.83
2018-02-18T10:34:24.726Z,102053.09
2018-02-18T10:36:52.165Z,102061.24
2018-02-18T10:39:19.530Z,102061.41
2018-02-18T10:41:46.919Z,102059.24
2018-02-18T10:44:15.151Z,102055.84
2018-02-18T10:46:42.611Z,102062.80
2018-02-18T10:49:10.070Z,102060.20
2018-02-18T10:51:37.452Z,102051.06
2018-02-18T10:54:04.839Z,102059.52
2018-02-18T10:56:32.327Z,102052.19
2018-02-18T10:58:59.718Z,102061.92
2018-02-18T11:01:27.115Z,102064.02
2018-02-18T11:03:54.604Z,102067.34
2018-02-18T11:06:22.000Z,102061.80
2018-02-18T11:08:49.391Z,102058.80
2018-02-18T11:11:16.778Z,102058.59
2018-02-18T11:13:44.171Z,102058.58
2018-02-18T11:16:11.571Z,102048.64
2018-02-18T11:18:39.040Z,102046.23
2018-02-18T11:21:06.444Z,102050.45
2018-02-18T11:23:33.834Z,102044.95
2018-02-18T11:26:01.310Z,102041.23
2018-02-18T11:28:28.710Z,102034.00
2018-02-18T11:30:56.096Z,102031.39
2018-02-18T11:33:23.507Z,102029.09
2018-02-18T11:35:50.910Z,102024.34
2018-02-18T11:38:18.291Z,102025.31
2018-02-18T11:40:45.682Z,102021.19
2018-02-18T11:43:13.073Z,102020.94
2018-02-18T11:45:40.458Z,102015.62
2018-02-18T11:48:07.847Z,102011.53
2018-02-18T11:50:35.330Z,102015.99
2018-02-18T11:53:02.723Z,102011.09
2018-02-18T11:55:30.148Z,102009.46
2018-02-18T11:57:57.536Z,102006.48
2018-02-18T12:00:24.952Z,102006.41
2018-02-18T12:02:52.365Z,102006.74
2018-02-18T12:05:19.774Z,101998.83
2018-02-18T12:07:47.176Z,101993.66
2018-02-18T12:10:14.558Z,101996.45
2018-02-18T12:12:41.967Z,101993.61
2018-02-18T12:15:09.351Z,101991.02
2018-02-18T12:17:36.747Z,101995.32
2018-02-18T12:20:04.196Z,101991.41
2018-02-18T12:22:31.674Z,101991.02
2018-02-18T12:24:59.055Z,101992.83
2018-02-18T12:27:26.450Z,101985.77
2018-02-18T12:29:53.911Z,101983.03
2018-02-18T12:32:21.318Z,101972.98
2018-02-18T12:34:48.699Z,101971.06
2018-02-18T12:37:16.096Z,101971.83
2018-02-18T12:39:43.491Z,101960.45
2018-02-18T12:42:10.887Z,101963.05
2018-02-18T12:44:38.310Z,101961.14
2018-02-18T12:47:05.687Z,101954.61
2018-02-18T12:49:33.171Z,101949.71
2018-02-18T12:52:00.623Z,101947.03
2018-02-18T12:54:28.007Z,101947.34
2018-02-18T12:56:55.435Z,101948.41
2018-02-18T12:59:22.818Z,101942.77
2018-02-18T13:01:50.209Z,101941.05
2018-02-18T13:04:17.596Z,101942.66
2018-02-18T13:06:45.046Z,101937.00
2018-02-18T13:09:12.442Z,101928.81
2018-02-18T13:11:39.852Z,101931.95
2018-02-18T13:14:07.234Z,101921.33
2018-02-18T13:16:34.610Z,101920.19
2018-02-18T13:19:02.003Z,101915.16
2018-02-18T13:21:29.391Z,101916.40
2018-02-18T13:23:56.791Z,101909.47
2018-02-18T13:26:24.194Z,101907.73
2018-02-18T13:28:51.674Z,101913.47
2018-02-18T13:31:19.050Z,101910.25
2018-02-18T13:33:46.451Z,101912.61
2018-02-18T13:36:13.943Z,101907.17
2018-02-18T13:38:41.339Z,101895.72
2018-02-18T13:41:08.741Z,101898.45
2018-02-18T13:43:36.198Z,101894.47
2018-02-18T13:46:03.586Z,101889.31
2018-02-18T13:48:30.974Z,101883.19
2018-02-18T13:50:58.463Z,101891.44
2018-02-18T13:53:25.875Z,101885.95
2018-02-18T13:55:53.294Z,101889.84
2018-02-18T13:58:20.707Z,101886.08
2018-02-18T14:00:48.102Z,101889.42
2018-02-18T14:03:15.539Z,101897.21
2018-02-18T14:05:42.922Z,101898.31
2018-02-18T14:08:10.327Z,101894.94
2018-02-18T14:10:37.714Z,101896.62
2018-02-18T14:13:05.099Z,101893.95
2018-02-18T14:15:32.494Z,101891.80
2018-02-18T14:18:00.051Z,101887.92
2018-02-18T14:20:27.564Z,101887.58
2018-02-18T14:22:54.950Z,101893.48
2018-02-18T14:25:22.432Z,101887.40
2018-02-18T14:27:49.810Z,101885.56
2018-02-18T14:30:17.267Z,101893.03
2018-02-18T14:32:44.723Z,101886.48
2018-02-18T14:35:12.147Z,101883.34
2018-02-18T14:37:39.531Z,101880.81
2018-02-18T14:40:06.922Z,101875.95
2018-02-18T14:42:46.018Z,101879.16
2018-02-18T14:45:25.458Z,101881.50
2018-02-18T14:51:04.512Z,101885.38
2018-02-18T14:53:43.755Z,101877.83
2018-02-18T14:56:19.883Z,101879.77
2018-02-18T14:58:47.272Z,101870.98
2018-02-18T15:01:14.671Z,101867.69
2018-02-18T15:03:42.058Z,101870.16
2018-02-18T15:06:09.452Z,101870.20
2018-02-18T15:08:36.863Z,101874.84
2018-02-18T15:11:04.270Z,101867.02
2018-02-18T15:13:31.690Z,101864.81
2018-02-18T15:15:59.106Z,101863.45
2018-02-18T15:18:26.488Z,101866.63
2018-02-18T15:20:53.887Z,101871.08
2018-02-18T15:23:21.295Z,101870.75
2018-02-18T15:25:48.747Z,101875.45
2018-02-18T15:28:16.315Z,101874.92
2018-02-18T15:30:43.779Z,101868.80
2018-02-18T15:33:11.166Z,101866.47
2018-02-18T15:35:38.571Z,101867.98
2018-02-18T15:38:05.964Z,101872.25
2018-02-18T15:40:33.395Z,101865.88
2018-02-18T15:43:00.871Z,101855.62
2018-02-18T15:45:28.328Z,101854.59
2018-02-18T15:47:55.747Z,101856.66
2018-02-18T15:50:23.136Z,101845.03
2018-02-18T15:52:50.594Z,101863.73
2018-02-18T15:55:17.984Z,101862.19
2018-02-18T15:57:45.383Z,101860.78
2018-02-18T16:00:12.790Z,101850.82
2018-02-18T16:02:40.213Z,101855.95
2018-02-18T16:05:07.599Z,101845.33
2018-02-18T16:07:35.002Z,101846.87
2018-02-18T16:10:02.483Z,101846.27
2018-02-18T16:12:29.883Z,101850.95
2018-02-18T16:14:57.295Z,101844.48
2018-02-18T16:17:24.687Z,101840.95
2018-02-18T16:19:52.091Z,101840.95
2018-02-18T16:22:19.563Z,101842.75
2018-02-18T16:24:47.019Z,101843.70
2018-02-18T16:27:14.427Z,101839.49
2018-02-18T16:29:41.919Z,101843.25
2018-02-18T16:32:09.394Z,101837.97
2018-02-18T16:34:36.847Z,101834.11
2018-02-18T16:37:04.242Z,101829.52
2018-02-18T16:39:31.643Z,101829.78
2018-02-18T16:41:59.042Z,101833.86
2018-02-18T16:44:26.442Z,101824.09
2018-02-18T16:46:53.831Z,101837.72
2018-02-18T16:49:21.218Z,101831.02
2018-02-18T16:51:48.635Z,101841.33
2018-02-18T16:54:16.022Z,101837.27
2018-02-18T16:56:43.443Z,101833.69
2018-02-18T16:59:10.900Z,101830.88
2018-02-18T17:01:38.299Z,101829.90
2018-02-18T17:04:05.691Z,101827.42
2018-02-18T17:06:33.106Z,101828.45
2018-02-18T17:09:00.493Z,101828.70
2018-02-18T17:11:27.910Z,101828.28
2018-02-18T17:13:55.294Z,101830.59
2018-02-18T17:16:22.791Z,101822.89
2018-02-18T17:18:50.247Z,101822.41
2018-02-18T17:21:17.637Z,101811.66
2018-02-18T17:23:45.075Z,101812.51
2018-02-18T17:26:12.496Z,101809.97
2018-02-18T17:28:39.876Z,101804.35
2018-02-18T17:31:07.282Z,101797.94
2018-02-18T17:33:34.673Z,101806.21
2018-02-18T17:36:02.089Z,101804.50
2018-02-18T17:38:29.586Z,101808.81
2018-02-18T17:40:56.994Z,101817.14
2018-02-18T17:43:24.402Z,101811.66
2018-02-18T17:45:51.974Z,101820.41
2018-02-18T17:48:19.383Z,101815.57
2018-02-18T17:50:46.784Z,101819.96
2018-02-18T17:53:14.193Z,101819.51
2018-02-18T17:55:41.631Z,101818.76
2018-02-18T17:58:11.086Z,101821.86
2018-02-18T18:00:38.473Z,101821.86
2018-02-18T18:03:05.877Z,101815.51
2018-02-18T18:05:33.319Z,101813.82
2018-02-18T18:08:00.759Z,101809.11
2018-02-18T18:10:28.150Z,101803.47
2018-02-18T18:12:55.575Z,101806.67
2018-02-18T18:15:23.081Z,101807.27
2018-02-18T18:17:50.503Z,101800.84
2018-02-18T18:20:17.897Z,101795.70
2018-02-18T18:22:45.294Z,101795.87
2018-02-18T18:25:12.686Z,101802.34
2018-02-18T18:27:40.083Z,101796.81
2018-02-18T18:30:07.507Z,101799.46
2018-02-18T18:32:34.898Z,101798.31
2018-02-18T18:35:02.405Z,101803.30
2018-02-18T18:37:29.871Z,101800.07
2018-02-18T18:39:57.328Z,101796.25
2018-02-18T18:42:24.785Z,101795.11
2018-02-18T18:44:52.166Z,101795.69
2018-02-18T18:47:19.594Z,101790.40
2018-02-18T18:49:47.085Z,101785.71
2018-02-18T18:52:14.460Z,101785.44
2018-02-18T18:54:41.855Z,101779.19
2018-02-18T18:57:09.327Z,101769.92
2018-02-18T18:59:36.723Z,101763.11
2018-02-18T19:02:04.239Z,101761.50
2018-02-18T19:04:31.703Z,101761.03
2018-02-18T19:06:59.107Z,101760.50
2018-02-18T19:09:26.491Z,101755.79
2018-02-18T19:11:53.886Z,101759.80
2018-02-18T19:14:21.289Z,101756.37
2018-02-18T19:16:48.683Z,101748.39
2018-02-18T19:19:16.066Z,101748.92
2018-02-18T19:21:43.471Z,101750.91
2018-02-18T19:24:10.871Z,101748.00
2018-02-18T19:26:38.275Z,101740.72
2018-02-18T19:29:05.674Z,101741.08
2018-02-18T19:31:33.068Z,101738.14
2018-02-18T19:34:00.471Z,101733.33
2018-02-18T19:36:27.895Z,101731.97
2018-02-18T19:38:55.302Z,101728.55
2018-02-18T19:41:22.695Z,101729.71
2018-02-18T19:43:50.343Z,101727.14
2018-02-18T19:46:17.731Z,101728.50
2018-02-18T19:48:45.180Z,101730.89
2018-02-18T19:51:12.575Z,101729.67
2018-02-18T19:53:39.989Z,101731.69
2018-02-18T19:56:07.447Z,101724.36
2018-02-18T19:58:34.846Z,101730.69
2018-02-18T20:01:02.273Z,101727.58
2018-02-18T20:03:29.656Z,101727.12
2018-02-18T20:05:57.043Z,101719.94
2018-02-18T20:08:24.443Z,101726.39
2018-02-18T20:10:51.831Z,101724.23
2018-02-18T20:13:20.814Z,101721.52
2018-02-18T20:15:48.184Z,101717.20
2018-02-18T20:18:15.575Z,101713.08
2018-02-18T20:20:42.966Z,101714.86
2018-02-18T20:23:10.443Z,101715.52
2018-02-18T20:25:37.830Z,101712.63
2018-02-18T20:28:05.224Z,101713.18
2018-02-18T20:30:32.703Z,101715.50
2018-02-18T20:33:00.105Z,101713.99
2018-02-18T20:35:27.483Z,101720.53
2018-02-18T20:37:54.974Z,101715.11
2018-02-18T20:40:22.435Z,101710.82
2018-02-18T20:42:49.843Z,101702.56
2018-02-18T20:45:17.343Z,101701.98
2018-02-18T20:47:44.730Z,101704.25
2018-02-18T20:50:12.151Z,101705.73
2018-02-18T20:52:39.623Z,101707.67
2018-02-18T20:55:07.063Z,101698.88
2018-02-18T20:57:34.459Z,101700.52
2018-02-18T21:00:01.858Z,101700.63
2018-02-18T21:02:29.264Z,101696.53
2018-02-18T21:04:56.698Z,101697.38
2018-02-18T21:07:24.098Z,101691.20
2018-02-18T21:09:51.507Z,101691.42
2018-02-18T21:12:18.970Z,101688.21
2018-02-18T21:14:47.058Z,101684.78
2018-02-18T21:17:14.479Z,101694.13
2018-02-18T21:19:41.875Z,101686.65
2018-02-18T21:22:09.269Z,101692.20
2018-02-18T21:24:36.759Z,101687.67
2018-02-18T21:27:04.163Z,101689.65
2018-02-18T21:29:31.661Z,101687.41
2018-02-18T21:31:59.072Z,101688.77
2018-02-18T21:34:26.458Z,101692.20
2018-02-18T21:36:53.862Z,101688.22
2018-02-18T21:39:21.244Z,101690.95
2018-02-18T21:41:48.659Z,101683.84
2018-02-18T21:44:16.059Z,101685.91
2018-02-18T21:46:43.466Z,101681.59
2018-02-18T21:49:10.935Z,101681.77
2018-02-18T21:51:38.366Z,101681.22
2018-02-18T21:54:05.746Z,101682.77
2018-02-18T21:56:33.159Z,101677.44
2018-02-18T21:59:00.647Z,101679.66
2018-02-18T22:01:28.102Z,101676.14
2018-02-18T22:03:55.562Z,101669.94
2018-02-18T22:06:22.961Z,101674.11
2018-02-18T22:08:50.346Z,101672.79
2018-02-18T22:11:17.760Z,101661.34
2018-02-18T22:13:45.155Z,101669.45
2018-02-18T22:16:12.644Z,101672.73
2018-02-18T22:18:40.043Z,101675.84
2018-02-18T22:21:07.438Z,101677.24
2018-02-18T22:23:34.839Z,101673.48
2018-02-18T22:26:02.231Z,101676.84
2018-02-18T22:28:29.662Z,101676.76
2018-02-18T22:30:57.072Z,101671.86
2018-02-18T22:33:24.582Z,101679.08
2018-02-18T22:35:52.030Z,101676.42
2018-02-18T22:38:19.431Z,101673.75
2018-02-18T22:40:46.834Z,101669.97
2018-02-18T22:43:14.230Z,101665.98
2018-02-18T22:45:42.063Z,101662.47
2018-02-18T22:48:09.471Z,101667.61
2018-02-18T22:50:37.006Z,101667.76
2018-02-18T22:53:04.399Z,101665.98
2018-02-18T22:55:31.804Z,101665.50
2018-02-18T22:57:59.195Z,101659.25
2018-02-18T23:00:26.594Z,101657.76
2018-02-18T23:02:54.015Z,101655.05
2018-02-18T23:05:27.131Z,101655.89
2018-02-18T23:07:54.609Z,101653.75
2018-02-18T23:10:22.047Z,101653.67
2018-02-18T23:12:49.442Z,101657.01
2018-02-18T23:15:16.872Z,101651.41
2018-02-18T23:17:44.333Z,101656.55
2018-02-18T23:20:11.718Z,101656.83
2018-02-18T23:22:39.108Z,101658.50
2018-02-18T23:25:06.502Z,101652.71
2018-02-18T23:27:33.908Z,101654.39
2018-02-18T23:30:01.304Z,101659.23
2018-02-18T23:32:28.699Z,101653.66
2018-02-18T23:34:56.099Z,101649.77
2018-02-18T23:37:23.499Z,101655.86
2018-02-18T23:39:50.895Z,101644.97
2018-02-18T23:42:18.286Z,101648.85
2018-02-18T23:44:45.688Z,101645.23
2018-02-18T23:47:13.075Z,101641.78
2018-02-18T23:49:40.484Z,101646.66
2018-02-18T23:52:07.993Z,101643.24
2018-02-18T23:54:35.405Z,101644.23
2018-02-18T23:57:02.819Z,101637.52
2018-02-18T23:59:30.214Z,101636.17
